Time;durP1;ratioP1;P1;durP2;ratioP2;P2;SDS_P1;SDS_P2;PMS_P1;PMS_P2;Temp;Humidity;BMP_temperature;BMP_pressure;BME280_temperature;BME280_humidity;BME280_pressure;Samples;Min_cycle;Max_cycle;Signal;HPM_P1;HPM_P2
2022/04/04 00:02:40;;;;;;;0.37;0.37;;;-0.80;99.90;;;;;;5101053;28;20204;-51
2022/04/04 00:05:25;;;;;;;0.50;0.50;;;-0.80;99.90;;;;;;5101021;28;20249;-50
2022/04/04 00:08:10;;;;;;;0.53;0.53;;;-1.00;99.90;;;;;;5102218;28;20322;-51
2022/04/04 00:10:54;;;;;;;2.57;0.80;;;-1.00;99.90;;;;;;5101700;28;20241;-54
2022/04/04 00:13:39;;;;;;;3.80;0.93;;;-1.00;99.90;;;;;;5102149;28;20195;-59
2022/04/04 00:16:23;;;;;;;0.33;0.33;;;-1.10;99.90;;;;;;5101316;28;20277;-58
2022/04/04 00:19:08;;;;;;;0.70;0.70;;;-1.00;99.90;;;;;;5101119;28;20196;-56
2022/04/04 00:21:52;;;;;;;0.30;0.30;;;-1.10;99.90;;;;;;5106828;28;20307;-59
2022/04/04 00:24:37;;;;;;;5.70;2.87;;;-1.00;99.90;;;;;;5106720;28;20188;-56
2022/04/04 00:27:21;;;;;;;52.40;24.40;;;-1.00;99.90;;;;;;5105080;28;20214;-56
2022/04/04 00:30:06;;;;;;;1.73;1.60;;;-0.80;99.90;;;;;;5107361;28;20250;-55
2022/04/04 00:32:50;;;;;;;1.97;0.60;;;-1.00;99.90;;;;;;5105715;28;20185;-60
2022/04/04 00:35:34;;;;;;;0.97;0.97;;;-1.20;99.90;;;;;;5105995;28;20200;-60
2022/04/04 00:38:19;;;;;;;0.97;0.67;;;-1.10;99.90;;;;;;5107041;28;20232;-49
2022/04/04 00:41:15;;;;;;;1.20;0.70;;;-1.20;99.90;;;;;;5104711;28;20282;-57
2022/04/04 00:43:59;;;;;;;0.80;0.63;;;-1.20;99.90;;;;;;5106990;28;20206;-54
2022/04/04 00:46:43;;;;;;;0.47;0.47;;;-1.30;99.90;;;;;;5106722;28;20196;-59
2022/04/04 00:49:28;;;;;;;0.50;0.50;;;-1.20;99.90;;;;;;5104659;28;20188;-60
2022/04/04 00:52:14;;;;;;;0.83;0.83;;;-1.10;99.90;;;;;;5106752;28;20209;-57
2022/04/04 00:54:59;;;;;;;0.60;0.60;;;-1.10;99.90;;;;;;5106048;28;20299;-61
2022/04/04 00:57:44;;;;;;;2.00;0.60;;;-1.20;99.90;;;;;;5104212;28;20346;-54
2022/04/04 01:00:29;;;;;;;0.83;0.83;;;-1.30;99.90;;;;;;5106642;28;20271;-60
2022/04/04 01:03:15;;;;;;;1.07;0.97;;;-1.30;99.90;;;;;;5105147;28;20270;-61
2022/04/04 01:05:59;;;;;;;0.97;0.60;;;-1.30;99.90;;;;;;5104749;28;20204;-53
2022/04/04 01:08:44;;;;;;;0.60;0.60;;;-1.40;99.90;;;;;;5105755;28;20192;-57
2022/04/04 01:11:29;;;;;;;0.77;0.77;;;-1.40;99.90;;;;;;5104382;28;20192;-60
2022/04/04 01:14:13;;;;;;;0.63;0.63;;;-1.60;99.90;;;;;;5104845;28;20250;-52
2022/04/04 01:16:57;;;;;;;1.03;1.03;;;-1.60;99.90;;;;;;5106105;28;20220;-54
2022/04/04 01:19:42;;;;;;;0.70;0.70;;;-1.60;99.90;;;;;;5103379;28;20239;-57
2022/04/04 01:22:27;;;;;;;0.27;0.27;;;-1.50;99.90;;;;;;5105878;28;20232;-61
2022/04/04 01:25:11;;;;;;;0.23;0.23;;;-1.50;99.90;;;;;;5105539;28;20211;-61
2022/04/04 01:27:57;;;;;;;1.00;1.00;;;-1.50;99.90;;;;;;5103462;28;20273;-52
2022/04/04 01:30:41;;;;;;;0.93;0.80;;;-1.60;99.90;;;;;;5104694;28;20192;-60
2022/04/04 01:33:28;;;;;;;0.90;0.90;;;-1.50;99.90;;;;;;5103566;28;20228;-55
2022/04/04 01:36:12;;;;;;;0.50;0.37;;;-1.60;99.90;;;;;;5103466;28;20304;-53
2022/04/04 01:38:56;;;;;;;0.97;0.97;;;-1.50;99.90;;;;;;5106398;28;20245;-54
2022/04/04 01:41:41;;;;;;;0.20;0.20;;;-1.40;99.90;;;;;;5104846;28;20280;-58
2022/04/04 01:44:25;;;;;;;0.93;0.93;;;-1.40;99.90;;;;;;5105921;28;20290;-60
2022/04/04 01:47:10;;;;;;;0.60;0.60;;;-1.40;99.90;;;;;;5106490;28;20196;-54
2022/04/04 01:49:54;;;;;;;0.70;0.70;;;-1.40;99.90;;;;;;5103550;28;20200;-60
2022/04/04 01:52:39;;;;;;;0.70;0.60;;;-1.50;99.90;;;;;;5105540;28;20196;-56
2022/04/04 01:55:24;;;;;;;1.07;0.83;;;-1.40;99.90;;;;;;5104808;28;20192;-54
2022/04/04 01:58:08;;;;;;;1.00;1.00;;;-1.50;99.90;;;;;;5102822;28;20301;-52
2022/04/04 02:00:56;;;;;;;4.97;0.90;;;-1.60;99.90;;;;;;5105810;28;20263;-57
2022/04/04 02:03:41;;;;;;;0.40;0.40;;;-1.70;99.90;;;;;;5104993;28;20194;-52
2022/04/04 02:06:26;;;;;;;5.13;0.97;;;-1.70;99.90;;;;;;5104067;28;20242;-57
2022/04/04 02:09:10;;;;;;;0.33;0.33;;;-1.80;99.90;;;;;;5105776;28;20263;-57
2022/04/04 02:11:54;;;;;;;0.20;0.20;;;-1.80;99.90;;;;;;5104176;28;20254;-61
2022/04/04 02:14:39;;;;;;;1.23;0.50;;;-1.80;99.90;;;;;;5104792;28;20204;-54
2022/04/04 02:17:24;;;;;;;0.20;0.20;;;-1.80;99.90;;;;;;5105415;28;20263;-59
2022/04/04 02:20:09;;;;;;;1.40;1.30;;;-1.90;99.90;;;;;;5103616;28;20249;-53
2022/04/04 02:22:53;;;;;;;1.63;1.23;;;-1.90;99.90;;;;;;5105065;28;20207;-53
2022/04/04 02:25:38;;;;;;;17.07;0.90;;;-1.90;99.90;;;;;;5104662;28;20227;-62
2022/04/04 02:28:23;;;;;;;0.70;0.70;;;-1.90;99.90;;;;;;5102833;28;20200;-60
2022/04/04 02:31:08;;;;;;;1.57;1.00;;;-1.90;99.90;;;;;;5104442;28;20242;-61
2022/04/04 02:33:52;;;;;;;0.50;0.50;;;-2.00;99.90;;;;;;5103327;28;20196;-54
2022/04/04 02:36:36;;;;;;;1.17;0.83;;;-2.00;99.90;;;;;;5103642;28;20224;-56
2022/04/04 02:39:21;;;;;;;0.47;0.47;;;-2.10;99.90;;;;;;5104661;28;20195;-52
2022/04/04 02:42:05;;;;;;;0.47;0.47;;;-2.20;99.90;;;;;;5103462;28;20228;-59
2022/04/04 02:44:50;;;;;;;1.17;1.17;;;-2.20;99.90;;;;;;5103383;28;20242;-49
2022/04/04 02:47:35;;;;;;;1.23;1.13;;;-2.30;99.90;;;;;;5104137;28;20195;-50
2022/04/04 02:50:19;;;;;;;1.47;0.87;;;-2.20;99.90;;;;;;5103189;28;20258;-56
2022/04/04 02:53:04;;;;;;;2.23;0.67;;;-2.30;99.90;;;;;;5104944;28;20277;-56
2022/04/04 02:58:51;;;;;;;1.30;1.20;;;-2.20;99.90;;;;;;5104734;28;20219;-54
2022/04/04 03:01:35;;;;;;;0.37;0.37;;;-2.20;99.90;;;;;;5104636;28;20192;-50
2022/04/04 03:04:20;;;;;;;0.33;0.33;;;-2.30;99.90;;;;;;5104552;28;20237;-57
2022/04/04 03:07:05;;;;;;;1.23;1.23;;;-2.30;99.90;;;;;;5102745;28;20196;-46
2022/04/04 03:09:49;;;;;;;0.43;0.43;;;-2.40;99.90;;;;;;5104383;28;20222;-51
2022/04/04 03:12:38;;;;;;;1.20;1.20;;;-2.30;99.90;;;;;;5103880;28;20271;-54
2022/04/04 03:15:24;;;;;;;0.97;0.83;;;-2.40;99.90;;;;;;5103049;28;20184;-53
2022/04/04 03:18:08;;;;;;;2.20;0.97;;;-2.40;99.90;;;;;;5104705;28;20204;-53
2022/04/04 03:20:54;;;;;;;0.40;0.40;;;-2.40;99.90;;;;;;5103899;28;20183;-50
2022/04/04 03:23:39;;;;;;;0.57;0.57;;;-2.40;99.90;;;;;;5103632;28;20231;-49
2022/04/04 03:26:24;;;;;;;3.13;1.10;;;-2.40;99.90;;;;;;5104293;28;20193;-51
2022/04/04 03:29:08;;;;;;;0.50;0.50;;;-2.40;99.90;;;;;;5102692;28;20188;-48
2022/04/04 03:31:53;;;;;;;0.77;0.77;;;-2.50;99.90;;;;;;5104708;28;20188;-47
2022/04/04 03:34:37;;;;;;;1.40;1.13;;;-2.50;99.90;;;;;;5104215;28;20241;-46
2022/04/04 03:37:22;;;;;;;1.43;1.43;;;-2.50;99.90;;;;;;5101801;28;20326;-50
2022/04/04 03:40:09;;;;;;;0.30;0.30;;;-2.50;99.90;;;;;;5104559;28;20327;-52
2022/04/04 03:42:56;;;;;;;1.93;1.10;;;-2.50;99.90;;;;;;5103288;28;20204;-47
2022/04/04 03:45:40;;;;;;;1.17;0.50;;;-2.60;99.90;;;;;;5102344;28;20200;-50
2022/04/04 03:48:25;;;;;;;1.90;0.63;;;-2.60;99.90;;;;;;5103320;28;20261;-46
2022/04/04 03:51:10;;;;;;;1.33;1.27;;;-2.60;99.90;;;;;;5102146;28;20280;-58
2022/04/04 03:53:54;;;;;;;0.50;0.50;;;-2.80;99.90;;;;;;5104169;28;20244;-54
2022/04/04 03:56:39;;;;;;;1.13;0.97;;;-2.70;99.90;;;;;;5108344;28;20223;-51
2022/04/04 03:59:24;;;;;;;0.53;0.53;;;-2.70;99.90;;;;;;5106713;28;20196;-56
2022/04/04 04:02:08;;;;;;;0.53;0.53;;;-2.70;99.90;;;;;;5108217;28;20195;-56
2022/04/04 04:04:52;;;;;;;19.03;5.67;;;-2.80;99.90;;;;;;5108219;28;20219;-53
2022/04/04 04:07:37;;;;;;;3.53;3.23;;;-2.70;99.90;;;;;;5105492;28;20250;-54
2022/04/04 04:10:22;;;;;;;1.87;1.27;;;-2.40;99.90;;;;;;5107260;28;20283;-57
2022/04/04 04:13:06;;;;;;;2.53;1.40;;;-2.10;99.90;;;;;;5107592;28;20188;-48
2022/04/04 04:15:51;;;;;;;1.20;1.10;;;-1.90;99.90;;;;;;5106563;28;20196;-49
2022/04/04 04:18:37;;;;;;;1.70;1.27;;;-1.70;99.90;;;;;;5108308;28;20192;-49
2022/04/04 04:21:23;;;;;;;1.40;1.27;;;-1.70;99.90;;;;;;5105902;28;20662;-53
2022/04/04 04:24:08;;;;;;;1.30;1.20;;;-1.60;99.90;;;;;;5107818;28;20268;-49
2022/04/04 04:26:54;;;;;;;1.53;1.10;;;-1.50;99.90;;;;;;5107051;28;20262;-49
2022/04/04 04:29:38;;;;;;;9.40;2.33;;;-1.60;99.90;;;;;;5105862;28;20216;-52
2022/04/04 04:32:23;;;;;;;3.40;2.07;;;-1.50;99.90;;;;;;5107912;28;20203;-52
2022/04/04 04:35:08;;;;;;;1.27;0.73;;;-1.40;99.90;;;;;;5107300;28;20197;-54
2022/04/04 04:37:53;;;;;;;1.70;1.60;;;-1.50;99.90;;;;;;5105305;28;20231;-54
2022/04/04 04:40:37;;;;;;;1.97;1.40;;;-1.80;99.90;;;;;;5106979;28;20204;-53
2022/04/04 04:43:22;;;;;;;0.60;0.60;;;-2.10;99.90;;;;;;5105868;28;20202;-48
2022/04/04 04:46:06;;;;;;;1.40;1.40;;;-2.20;99.90;;;;;;5114754;27;20221;-53
2022/04/04 04:48:51;;;;;;;0.60;0.60;;;-2.30;99.90;;;;;;5134341;27;20190;-54
2022/04/04 04:51:35;;;;;;;2.37;1.30;;;-2.40;99.90;;;;;;5130812;27;20199;-55
2022/04/04 04:54:20;;;;;;;0.67;0.67;;;-2.40;99.90;;;;;;5133288;27;20192;-62
2022/04/04 04:57:05;;;;;;;1.47;1.33;;;-2.40;99.90;;;;;;5135093;27;20683;-59
2022/04/04 04:59:49;;;;;;;1.13;1.10;;;-2.40;99.90;;;;;;5125647;27;20288;-57
2022/04/04 05:02:34;;;;;;;0.67;0.67;;;-2.40;99.90;;;;;;5134627;27;20229;-47
2022/04/04 05:05:18;;;;;;;2.13;0.70;;;-2.40;99.90;;;;;;5135582;27;20216;-54
2022/04/04 05:08:04;;;;;;;1.60;1.50;;;-2.40;99.90;;;;;;5132722;27;20200;-54
2022/04/04 05:10:48;;;;;;;1.13;0.87;;;-2.30;99.90;;;;;;5134406;27;20210;-52
2022/04/04 05:13:33;;;;;;;1.47;1.47;;;-2.30;99.90;;;;;;5135747;27;20214;-58
2022/04/04 05:16:17;;;;;;;0.50;0.50;;;-2.30;99.90;;;;;;5136449;27;20249;-59
2022/04/04 05:19:03;;;;;;;1.50;1.40;;;-2.20;99.90;;;;;;5133547;27;20219;-50
2022/04/04 05:21:48;;;;;;;0.80;0.80;;;-2.20;99.90;;;;;;5133596;27;20231;-46
2022/04/04 05:24:34;;;;;;;1.30;1.13;;;-2.10;99.90;;;;;;5136101;27;20245;-52
2022/04/04 05:27:18;;;;;;;1.53;1.20;;;-2.00;99.90;;;;;;5138668;27;20195;-54
2022/04/04 05:30:03;;;;;;;1.60;1.50;;;-1.90;99.90;;;;;;5133966;27;20202;-55
2022/04/04 05:32:49;;;;;;;1.03;0.97;;;-2.00;99.90;;;;;;5134924;27;20268;-57
2022/04/04 05:35:34;;;;;;;1.53;1.43;;;-1.90;99.90;;;;;;5139384;27;20231;-49
2022/04/04 05:38:18;;;;;;;2.80;1.33;;;-1.80;99.90;;;;;;5130253;27;20199;-57
2022/04/04 05:41:03;;;;;;;2.50;2.23;;;-1.80;99.90;;;;;;5126373;27;20249;-55
2022/04/04 05:43:48;;;;;;;2.17;1.37;;;-1.90;99.90;;;;;;5133433;27;20202;-60
2022/04/04 05:46:33;;;;;;;2.73;1.30;;;-1.80;99.90;;;;;;5133027;27;20672;-57
2022/04/04 05:49:18;;;;;;;0.90;0.90;;;-1.70;99.90;;;;;;5137257;27;20183;-54
2022/04/04 05:52:03;;;;;;;1.00;0.87;;;-1.60;99.90;;;;;;5131542;27;20176;-58
2022/04/04 05:54:54;;;;;;;1.40;1.30;;;-1.60;99.90;;;;;;5124082;27;20219;-59
2022/04/04 05:57:39;;;;;;;2.23;1.57;;;-1.60;99.90;;;;;;5133286;27;20230;-60
2022/04/04 06:00:24;;;;;;;6.13;1.33;;;-1.40;99.90;;;;;;5131702;27;20200;-59
2022/04/04 06:03:08;;;;;;;3.53;1.67;;;-1.40;99.90;;;;;;5131670;27;20187;-56
2022/04/04 06:05:54;;;;;;;1.73;1.57;;;-1.30;99.90;;;;;;5136164;27;20219;-54
2022/04/04 06:08:38;;;;;;;3.47;2.47;;;-1.10;99.90;;;;;;5135381;27;20684;-58
2022/04/04 06:11:23;;;;;;;4.33;2.33;;;-1.10;99.90;;;;;;5124365;27;20184;-51
2022/04/04 06:14:07;;;;;;;3.47;3.10;;;-1.00;99.90;;;;;;5122967;27;20195;-56
2022/04/04 06:16:51;;;;;;;3.23;3.03;;;-1.00;99.90;;;;;;5122929;27;20223;-50
2022/04/04 06:19:36;;;;;;;10.70;5.47;;;-0.90;99.90;;;;;;5125242;27;20271;-55
2022/04/04 06:22:22;;;;;;;2.17;1.97;;;-0.80;99.90;;;;;;5121211;27;20212;-47
2022/04/04 06:25:08;;;;;;;1.97;1.77;;;-0.80;99.90;;;;;;5123817;27;20187;-50
2022/04/04 06:27:53;;;;;;;2.37;2.10;;;-0.70;99.90;;;;;;5124657;27;20190;-54
2022/04/04 06:30:37;;;;;;;2.10;1.17;;;-0.60;99.90;;;;;;5120519;27;20210;-51
2022/04/04 06:33:21;;;;;;;3.50;2.27;;;-0.60;99.90;;;;;;5122671;27;20262;-51
2022/04/04 06:36:05;;;;;;;3.63;2.00;;;-0.50;99.90;;;;;;5123244;27;20207;-53
2022/04/04 06:38:50;;;;;;;2.77;2.50;;;-0.30;99.90;;;;;;5119433;27;20191;-51
2022/04/04 06:41:36;;;;;;;1.90;1.80;;;-0.20;99.90;;;;;;5124189;27;20296;-54
2022/04/04 06:44:21;;;;;;;2.53;2.33;;;-0.10;99.90;;;;;;5121850;27;20199;-56
2022/04/04 06:47:05;;;;;;;1.97;1.77;;;0.00;99.90;;;;;;5121730;27;20199;-52
2022/04/04 06:49:52;;;;;;;3.23;2.93;;;0.00;99.90;;;;;;5127631;27;20222;-48
2022/04/04 06:52:37;;;;;;;5.43;3.30;;;0.00;99.90;;;;;;5131320;27;20241;-60
2022/04/04 06:55:21;;;;;;;1.93;1.73;;;0.00;99.90;;;;;;5135842;27;20191;-53
2022/04/04 06:58:07;;;;;;;1.93;1.77;;;0.10;99.90;;;;;;5130433;27;20234;-51
2022/04/04 07:00:51;;;;;;;3.87;2.07;;;0.10;99.90;;;;;;5133414;27;20248;-49
2022/04/04 07:03:35;;;;;;;2.07;1.87;;;0.10;99.90;;;;;;5127687;27;20195;-55
2022/04/04 07:06:20;;;;;;;1.90;1.90;;;0.20;99.90;;;;;;5138404;27;20233;-52
2022/04/04 07:09:05;;;;;;;3.17;2.30;;;0.20;99.90;;;;;;5125691;27;20214;-59
2022/04/04 07:11:51;;;;;;;1.37;1.37;;;0.30;99.90;;;;;;5133360;27;20213;-50
2022/04/04 07:14:35;;;;;;;2.63;1.73;;;0.50;99.90;;;;;;5135100;27;20244;-57
2022/04/04 07:17:20;;;;;;;3.20;1.93;;;0.60;99.90;;;;;;5128209;27;20277;-50
2022/04/04 07:20:05;;;;;;;5.90;4.10;;;0.70;99.90;;;;;;5125032;27;20238;-49
2022/04/04 07:22:50;;;;;;;2.17;2.07;;;0.80;99.90;;;;;;5131589;27;20191;-54
2022/04/04 07:25:35;;;;;;;1.83;1.73;;;0.80;99.90;;;;;;5154132;27;20183;-53
2022/04/04 07:28:22;;;;;;;2.00;1.90;;;0.90;99.90;;;;;;5144169;27;20194;-48
2022/04/04 07:31:09;;;;;;;1.20;1.20;;;0.80;99.90;;;;;;5142994;27;20283;-49
2022/04/04 07:33:54;;;;;;;2.93;1.07;;;0.90;99.90;;;;;;5125964;27;20198;-52
2022/04/04 07:36:42;;;;;;;1.93;1.83;;;1.00;99.90;;;;;;5133781;27;20226;-48
2022/04/04 07:39:26;;;;;;;1.83;1.73;;;1.10;99.90;;;;;;5126465;27;20267;-53
2022/04/04 07:42:12;;;;;;;1.70;1.60;;;1.20;99.90;;;;;;5126910;27;20331;-46
2022/04/04 07:44:56;;;;;;;2.43;2.17;;;1.20;99.90;;;;;;5102315;28;20215;-46
2022/04/04 07:47:41;;;;;;;3.60;2.80;;;1.30;99.90;;;;;;5100457;28;20195;-57
2022/04/04 07:50:25;;;;;;;4.10;2.10;;;1.30;99.90;;;;;;5103884;28;20246;-51
2022/04/04 07:53:11;;;;;;;2.73;1.80;;;1.60;99.90;;;;;;5102744;28;20195;-53
2022/04/04 07:55:55;;;;;;;1.73;1.67;;;2.00;99.90;;;;;;5103476;28;20219;-57
2022/04/04 07:58:40;;;;;;;1.03;1.03;;;2.40;99.90;;;;;;5103912;28;20189;-52
2022/04/04 08:01:25;;;;;;;1.43;1.33;;;2.70;99.90;;;;;;5102019;28;20219;-45
2022/04/04 08:04:12;;;;;;;1.57;1.50;;;2.20;99.90;;;;;;5104036;28;20223;-49
2022/04/04 08:06:56;;;;;;;7.00;1.90;;;2.10;99.90;;;;;;5104181;28;20215;-54
2022/04/04 08:09:40;;;;;;;6.90;2.13;;;2.30;99.90;;;;;;5101382;28;20200;-51
2022/04/04 08:12:26;;;;;;;4.30;1.77;;;2.70;99.90;;;;;;5103599;28;20266;-56
2022/04/04 08:15:10;;;;;;;1.53;1.23;;;3.20;99.90;;;;;;5102665;28;20200;-58
2022/04/04 08:17:54;;;;;;;1.07;1.00;;;3.50;99.90;;;;;;5101635;28;20333;-57
2022/04/04 08:20:39;;;;;;;1.43;1.33;;;3.40;99.90;;;;;;5103653;28;20200;-58
2022/04/04 08:23:29;;;;;;;1.33;1.20;;;3.50;99.90;;;;;;5102745;28;20196;-54
2022/04/04 08:26:15;;;;;;;1.50;1.20;;;2.90;99.90;;;;;;5102743;28;20204;-52
2022/04/04 08:28:59;;;;;;;1.67;1.57;;;2.80;99.90;;;;;;5103158;28;20235;-56
2022/04/04 08:31:43;;;;;;;1.40;1.20;;;3.00;99.90;;;;;;5102334;28;20231;-60
2022/04/04 08:34:29;;;;;;;2.57;1.13;;;3.00;99.90;;;;;;5102955;28;20232;-53
2022/04/04 08:37:13;;;;;;;1.40;1.30;;;3.40;99.90;;;;;;5103730;28;20216;-59
2022/04/04 08:40:00;;;;;;;2.30;1.63;;;4.00;99.90;;;;;;5102081;28;20200;-60
2022/04/04 08:42:46;;;;;;;1.60;1.50;;;4.10;99.90;;;;;;5106988;28;20200;-57
2022/04/04 08:45:31;;;;;;;1.40;1.30;;;4.30;99.90;;;;;;5106350;28;20199;-61
2022/04/04 08:48:17;;;;;;;1.30;1.27;;;4.20;99.70;;;;;;5105672;28;20246;-51
2022/04/04 08:51:02;;;;;;;3.67;1.00;;;4.40;99.50;;;;;;5107286;28;20192;-50
2022/04/04 08:53:46;;;;;;;1.30;1.23;;;4.60;99.20;;;;;;5105991;28;20235;-62
2022/04/04 08:56:31;;;;;;;1.43;1.33;;;5.00;99.60;;;;;;5106088;28;20212;-57
2022/04/04 08:59:15;;;;;;;1.20;1.20;;;5.60;98.60;;;;;;5106824;28;20257;-49
2022/04/04 09:02:00;;;;;;;0.53;0.53;;;4.50;96.10;;;;;;5105932;28;20196;-60
2022/04/04 09:04:51;;;;;;;2.83;0.93;;;4.90;96.60;;;;;;5106272;28;20195;-55
2022/04/04 09:08:14;;;;;;;0.80;0.80;;;5.40;96.00;;;;;;5106972;28;20262;-56
2022/04/04 09:11:01;;;;;;;1.00;0.93;;;5.30;94.00;;;;;;5105053;28;20193;-64
2022/04/04 09:14:03;;;;;;;1.30;1.20;;;4.40;94.60;;;;;;5105601;28;20192;-57
2022/04/04 09:16:55;;;;;;;0.67;0.67;;;4.50;95.20;;;;;;5106158;28;20360;-57
2022/04/04 09:19:40;;;;;;;1.63;1.37;;;5.30;94.10;;;;;;5105517;28;20208;-61
2022/04/04 09:22:25;;;;;;;1.03;0.80;;;5.80;94.60;;;;;;5105376;28;20768;-58
2022/04/04 09:25:10;;;;;;;2.07;1.10;;;5.30;93.00;;;;;;5106716;28;20196;-54
2022/04/04 09:28:17;;;;;;;1.30;1.07;;;5.80;93.00;;;;;;5104800;28;20215;-53
2022/04/04 09:31:07;;;;;;;1.00;1.00;;;6.80;94.00;;;;;;5105078;28;20241;-60
2022/04/04 09:33:51;;;;;;;0.80;0.80;;;6.50;92.10;;;;;;5106532;28;20200;-58
2022/04/04 09:36:46;;;;;;;1.00;1.00;;;7.60;92.10;;;;;;5116286;27;20226;-55
2022/04/04 09:39:33;;;;;;;1.70;1.10;;;7.60;91.40;;;;;;5135920;27;20187;-60
2022/04/04 09:42:19;;;;;;;0.93;0.67;;;7.70;92.50;;;;;;5136326;27;20256;-54
2022/04/04 09:45:09;;;;;;;0.70;0.70;;;6.70;88.90;;;;;;5127686;27;20194;-47
2022/04/04 09:48:09;;;;;;;0.90;0.90;;;6.20;87.80;;;;;;5135667;27;20201;-53
2022/04/04 09:50:54;;;;;;;1.23;1.17;;;5.10;90.40;;;;;;5135363;27;20191;-59
2022/04/04 09:53:39;;;;;;;1.23;1.00;;;5.20;90.80;;;;;;5134124;27;20190;-48
2022/04/04 09:56:25;;;;;;;1.20;1.10;;;4.90;91.50;;;;;;5131621;27;20227;-52
2022/04/04 09:59:12;;;;;;;1.10;1.00;;;5.30;91.40;;;;;;5133254;27;20202;-57
2022/04/04 10:01:57;;;;;;;1.03;1.03;;;5.60;91.00;;;;;;5133847;27;20198;-51
2022/04/04 10:04:46;;;;;;;0.90;0.90;;;5.40;91.50;;;;;;5134883;27;20182;-48
2022/04/04 10:07:31;;;;;;;1.20;1.10;;;5.30;92.00;;;;;;5131966;27;20240;-54
2022/04/04 10:10:16;;;;;;;0.90;0.90;;;5.60;92.00;;;;;;5133960;27;20180;-53
2022/04/04 10:13:01;;;;;;;1.10;1.10;;;5.50;91.70;;;;;;5134696;27;20221;-50
2022/04/04 10:15:46;;;;;;;1.03;1.03;;;5.50;91.20;;;;;;5123463;27;20190;-57
2022/04/04 10:18:32;;;;;;;1.23;1.17;;;5.00;91.20;;;;;;5137418;27;20198;-58
2022/04/04 10:21:18;;;;;;;3.63;1.23;;;4.70;92.30;;;;;;5133155;27;20232;-50
2022/04/04 10:24:02;;;;;;;0.83;0.83;;;5.60;92.10;;;;;;5136321;27;20203;-51
2022/04/04 10:26:50;;;;;;;1.30;1.20;;;6.70;90.10;;;;;;5132901;27;20240;-61
2022/04/04 10:29:40;;;;;;;2.07;1.20;;;6.30;89.90;;;;;;5135493;27;20175;-52
2022/04/04 10:32:28;;;;;;;1.30;1.30;;;5.20;90.50;;;;;;5124211;27;20178;-56
2022/04/04 10:35:13;;;;;;;1.00;1.00;;;5.10;90.90;;;;;;5133568;27;20182;-54
2022/04/04 10:38:03;;;;;;;1.13;1.07;;;5.10;91.50;;;;;;5132248;27;20249;-54
2022/04/04 10:40:47;;;;;;;0.90;0.83;;;5.20;91.60;;;;;;5124311;27;20242;-50
2022/04/04 10:43:35;;;;;;;1.33;1.03;;;5.50;91.60;;;;;;5124276;27;20196;-51
2022/04/04 10:46:21;;;;;;;1.13;0.80;;;5.50;91.00;;;;;;5123296;27;20187;-52
2022/04/04 10:49:06;;;;;;;0.80;0.80;;;5.50;91.50;;;;;;5121022;27;20215;-58
2022/04/04 10:51:51;;;;;;;0.50;0.50;;;6.10;90.90;;;;;;5123223;27;20241;-53
2022/04/04 10:54:38;;;;;;;1.00;1.00;;;6.10;89.70;;;;;;5121822;27;20220;-60
2022/04/04 10:57:22;;;;;;;1.50;1.03;;;6.80;88.00;;;;;;5121064;27;20260;-56
2022/04/04 11:00:08;;;;;;;1.00;1.00;;;6.00;89.30;;;;;;5123218;27;20273;-52
2022/04/04 11:02:52;;;;;;;1.20;0.93;;;6.20;90.30;;;;;;5123595;27;20203;-53
2022/04/04 11:09:15;;;;;;;0.70;0.70;;;7.80;87.60;;;;;;5124882;27;20186;-53
2022/04/04 11:12:08;;;;;;;0.80;0.80;;;7.80;83.70;;;;;;5131691;27;20226;-57
2022/04/04 11:15:04;;;;;;;0.67;0.67;;;6.80;85.80;;;;;;5131182;27;20191;-48
2022/04/04 11:18:00;;;;;;;1.03;1.00;;;7.80;85.10;;;;;;5138719;27;20235;-57
2022/04/04 11:20:50;;;;;;;0.87;0.87;;;7.50;83.20;;;;;;5133420;27;20201;-51
2022/04/04 11:23:35;;;;;;;0.90;0.77;;;7.10;83.10;;;;;;5134239;27;20273;-57
2022/04/04 11:26:20;;;;;;;0.90;0.90;;;8.10;83.60;;;;;;5132400;27;20260;-49
2022/04/04 11:29:09;;;;;;;1.07;0.90;;;9.40;79.40;;;;;;5132053;27;20304;-54
2022/04/04 11:31:54;;;;;;;0.70;0.70;;;9.80;77.40;;;;;;5131893;27;20348;-53
2022/04/04 11:34:40;;;;;;;0.90;0.90;;;9.50;76.30;;;;;;5131093;27;20194;-51
2022/04/04 11:37:27;;;;;;;1.00;1.00;;;10.00;76.70;;;;;;5130816;27;20243;-55
2022/04/04 11:40:25;;;;;;;0.90;0.90;;;11.90;73.00;;;;;;5132302;27;20197;-59
2022/04/04 11:43:16;;;;;;;0.90;0.90;;;9.60;73.90;;;;;;5140505;27;20199;-55
2022/04/04 11:46:02;;;;;;;1.50;1.40;;;11.20;73.50;;;;;;5142198;27;20202;-51
2022/04/04 11:48:51;;;;;;;1.23;1.13;;;10.90;69.20;;;;;;5143939;27;20195;-61
2022/04/04 11:51:35;;;;;;;0.90;0.90;;;10.20;71.80;;;;;;5145138;27;20195;-60
2022/04/04 11:54:19;;;;;;;0.90;0.90;;;9.40;71.20;;;;;;5143360;27;20187;-59
2022/04/04 11:57:05;;;;;;;1.07;1.00;;;8.90;72.50;;;;;;5144869;27;20218;-60
2022/04/04 11:59:50;;;;;;;1.30;1.20;;;9.00;72.30;;;;;;5144771;27;20202;-55
2022/04/04 12:02:36;;;;;;;0.77;0.77;;;8.40;74.00;;;;;;5142896;27;20202;-51
2022/04/04 12:05:24;;;;;;;0.70;0.70;;;10.30;72.90;;;;;;5144986;27;20227;-56
2022/04/04 12:08:10;;;;;;;0.80;0.80;;;10.20;72.70;;;;;;5143589;27;20267;-57
2022/04/04 12:10:55;;;;;;;1.23;1.20;;;11.10;71.00;;;;;;5144737;27;20252;-59
2022/04/04 12:13:52;;;;;;;0.63;0.63;;;9.60;70.30;;;;;;5144786;27;20244;-61
2022/04/04 12:16:51;;;;;;;0.53;0.53;;;9.60;72.70;;;;;;5145388;27;20214;-56
2022/04/04 12:19:49;;;;;;;1.03;0.97;;;12.70;67.70;;;;;;5148025;27;20210;-58
2022/04/04 12:25:38;;;;;;;0.87;0.87;;;13.10;65.50;;;;;;5149453;27;20192;-52
2022/04/04 12:28:25;;;;;;;0.77;0.77;;;12.30;68.50;;;;;;5147221;27;20200;-61
2022/04/04 12:31:18;;;;;;;0.80;0.80;;;11.80;68.20;;;;;;5149667;27;20230;-54
2022/04/04 12:34:07;;;;;;;1.30;1.20;;;12.20;67.30;;;;;;5148565;27;20199;-61
2022/04/04 12:36:59;;;;;;;1.10;1.10;;;12.40;64.60;;;;;;5147001;27;20299;-54
2022/04/04 12:39:43;;;;;;;0.93;0.93;;;11.00;70.40;;;;;;5148766;27;20199;-54
2022/04/04 12:42:30;;;;;;;0.93;0.93;;;10.60;68.90;;;;;;5147053;27;20272;-56
2022/04/04 12:45:18;;;;;;;1.63;1.50;;;11.30;69.40;;;;;;5147668;27;20245;-59
2022/04/04 12:48:07;;;;;;;1.00;1.00;;;10.60;69.10;;;;;;5148304;27;20221;-59
2022/04/04 12:50:51;;;;;;;1.10;1.10;;;11.50;68.90;;;;;;5146901;27;20240;-48
2022/04/04 12:53:50;;;;;;;0.80;0.80;;;10.60;71.50;;;;;;5147844;27;20201;-57
2022/04/04 12:56:54;;;;;;;1.50;1.50;;;11.30;69.80;;;;;;5148614;27;20234;-59
2022/04/04 12:59:51;;;;;;;1.57;1.50;;;9.30;70.00;;;;;;5147356;27;20191;-52
2022/04/04 13:02:38;;;;;;;1.20;1.20;;;9.60;69.70;;;;;;5146801;27;20202;-58
2022/04/04 13:05:25;;;;;;;1.17;1.07;;;9.00;72.30;;;;;;5147814;27;20441;-60
2022/04/04 13:08:17;;;;;;;0.70;0.70;;;8.90;73.10;;;;;;5146440;27;20245;-60
2022/04/04 13:11:02;;;;;;;1.63;1.53;;;9.30;72.40;;;;;;5148175;27;20216;-63
2022/04/04 13:14:07;;;;;;;1.60;1.07;;;9.20;71.30;;;;;;5147070;27;20186;-50
2022/04/04 13:17:04;;;;;;;1.13;1.13;;;10.00;72.70;;;;;;5146256;27;20280;-59
2022/04/04 13:19:49;;;;;;;1.10;1.00;;;12.30;69.30;;;;;;5147024;27;20256;-54
2022/04/04 13:22:34;;;;;;;1.73;1.63;;;13.10;66.50;;;;;;5147476;27;20201;-54
2022/04/04 13:25:18;;;;;;;1.10;1.10;;;14.10;64.40;;;;;;5145782;27;20222;-61
2022/04/04 13:28:03;;;;;;;2.00;1.90;;;14.00;64.30;;;;;;5147247;27;20268;-57
2022/04/04 13:30:48;;;;;;;1.70;1.60;;;12.90;63.80;;;;;;5147181;27;20195;-52
2022/04/04 13:33:32;;;;;;;1.70;1.63;;;10.90;67.50;;;;;;5145757;27;20216;-61
2022/04/04 13:36:17;;;;;;;2.37;2.00;;;12.00;66.70;;;;;;5146895;27;20206;-60
2022/04/04 13:39:02;;;;;;;1.63;1.53;;;10.20;67.60;;;;;;5146809;27;20221;-53
2022/04/04 13:41:47;;;;;;;1.90;1.63;;;10.30;68.90;;;;;;5146303;27;20235;-56
2022/04/04 13:44:31;;;;;;;2.37;2.17;;;10.80;69.50;;;;;;5147223;27;20187;-57
2022/04/04 13:47:15;;;;;;;1.87;1.77;;;10.40;65.20;;;;;;5145402;27;20202;-50
2022/04/04 13:50:00;;;;;;;2.03;1.93;;;10.80;66.30;;;;;;5146820;27;20257;-55
2022/04/04 13:52:44;;;;;;;2.03;1.93;;;10.60;64.90;;;;;;5147060;27;20244;-53
2022/04/04 13:55:28;;;;;;;1.50;1.43;;;9.50;67.50;;;;;;5145220;27;20215;-55
2022/04/04 13:58:13;;;;;;;1.50;1.33;;;10.60;67.70;;;;;;5147029;27;20227;-48
2022/04/04 14:00:57;;;;;;;1.50;1.40;;;11.20;68.20;;;;;;5146318;27;20199;-52
2022/04/04 14:03:43;;;;;;;2.17;2.07;;;13.40;66.00;;;;;;5144378;27;20191;-58
2022/04/04 14:06:28;;;;;;;1.77;1.67;;;13.40;63.10;;;;;;5146640;27;20203;-52
2022/04/04 14:09:12;;;;;;;1.30;1.23;;;14.70;65.00;;;;;;5145810;27;20251;-51
2022/04/04 14:11:57;;;;;;;1.83;1.73;;;13.80;61.30;;;;;;5145727;27;20232;-52
2022/04/04 14:14:42;;;;;;;1.63;1.53;;;12.60;62.60;;;;;;5147070;27;20208;-49
2022/04/04 14:17:27;;;;;;;2.27;2.07;;;12.80;65.10;;;;;;5144908;27;20228;-52
2022/04/04 14:20:12;;;;;;;1.80;1.40;;;13.10;62.90;;;;;;5145419;27;20195;-50
2022/04/04 14:22:56;;;;;;;2.63;1.80;;;12.70;63.20;;;;;;5146694;27;20259;-59
2022/04/04 14:25:40;;;;;;;1.23;1.23;;;12.40;65.30;;;;;;5144161;27;20248;-49
2022/04/04 14:28:27;;;;;;;1.90;1.77;;;10.60;68.30;;;;;;5146158;27;20194;-52
2022/04/04 14:31:11;;;;;;;2.30;2.13;;;10.40;68.80;;;;;;5145713;27;20190;-58
2022/04/04 14:34:00;;;;;;;1.63;1.53;;;8.90;70.80;;;;;;5132036;27;20196;-58
2022/04/04 14:36:47;;;;;;;2.43;2.23;;;9.70;71.10;;;;;;5126776;27;20222;-51
2022/04/04 14:39:33;;;;;;;1.80;1.70;;;9.40;70.70;;;;;;5144155;27;20187;-61